createdAt,value
2023-04-30T00:03:17.453Z,11.74
2023-04-30T00:08:25.084Z,11.73
2023-04-30T00:13:32.879Z,11.74
2023-04-30T00:18:39.300Z,11.77
2023-04-30T00:23:46.424Z,11.75
2023-04-30T00:28:54.156Z,11.77
2023-04-30T00:34:00.583Z,11.78
2023-04-30T00:39:07.008Z,11.80
2023-04-30T00:44:14.853Z,11.82
2023-04-30T00:49:21.384Z,11.82
2023-04-30T00:54:28.260Z,11.82
2023-04-30T00:59:36.383Z,11.81
2023-04-30T01:04:43.000Z,11.81
2023-04-30T01:09:49.754Z,11.78
2023-04-30T01:15:20.757Z,11.78
2023-04-30T01:20:30.834Z,11.75
2023-04-30T01:25:54.016Z,11.81
2023-04-30T01:31:02.965Z,11.83
2023-04-30T01:36:32.192Z,11.85
2023-04-30T01:41:45.191Z,11.77
2023-04-30T01:47:04.128Z,11.70
2023-04-30T01:52:22.627Z,11.59
2023-04-30T01:57:34.806Z,11.48
2023-04-30T02:02:43.105Z,11.48
2023-04-30T02:07:52.425Z,11.42
2023-04-30T02:12:59.295Z,11.40
2023-04-30T02:18:08.457Z,11.29
2023-04-30T02:23:15.280Z,11.31
2023-04-30T02:28:21.761Z,11.31
2023-04-30T02:33:29.569Z,10.94
2023-04-30T02:38:36.270Z,10.71
2023-04-30T02:43:42.542Z,10.43
2023-04-30T02:48:50.252Z,10.27
2023-04-30T02:53:56.634Z,10.20
2023-04-30T02:59:02.763Z,10.06
2023-04-30T03:04:10.527Z,9.84
2023-04-30T03:09:16.968Z,9.82
2023-04-30T03:14:24.056Z,9.79
2023-04-30T03:19:32.124Z,9.67
2023-04-30T03:24:38.636Z,9.77
2023-04-30T03:29:44.952Z,9.77
2023-04-30T03:34:52.874Z,9.79
2023-04-30T03:39:59.265Z,9.75
2023-04-30T03:45:07.460Z,9.75
2023-04-30T03:50:15.438Z,9.76
2023-04-30T03:55:22.296Z,9.79
2023-04-30T04:00:28.936Z,9.74
2023-04-30T04:05:36.908Z,9.79
2023-04-30T04:10:43.748Z,9.79
2023-04-30T04:15:50.088Z,9.79
2023-04-30T04:20:58.291Z,9.85
2023-04-30T04:26:04.936Z,9.87
2023-04-30T04:31:11.813Z,9.80
2023-04-30T04:36:19.707Z,9.73
2023-04-30T04:41:26.991Z,9.72
2023-04-30T04:46:34.346Z,9.76
2023-04-30T04:51:42.552Z,9.67
2023-04-30T04:56:49.266Z,9.73
2023-04-30T05:01:55.961Z,9.70
2023-04-30T05:07:04.672Z,9.63
2023-04-30T05:12:10.896Z,9.46
2023-04-30T05:17:17.216Z,9.55
2023-04-30T05:22:25.346Z,9.52
2023-04-30T05:27:31.847Z,9.46
2023-04-30T05:32:38.668Z,9.52
2023-04-30T05:37:46.819Z,9.68
2023-04-30T05:42:52.961Z,9.77
2023-04-30T05:47:59.530Z,9.84
2023-04-30T05:53:07.764Z,9.97
2023-04-30T05:58:14.429Z,10.06
2023-04-30T06:03:21.492Z,10.08
2023-04-30T06:08:30.072Z,10.02
2023-04-30T06:13:36.516Z,9.98
2023-04-30T06:18:42.819Z,9.92
2023-04-30T06:23:50.636Z,10.01
2023-04-30T06:28:57.024Z,10.03
2023-04-30T06:34:03.624Z,10.06
2023-04-30T06:39:13.042Z,10.12
2023-04-30T06:44:19.699Z,10.21
2023-04-30T06:49:26.219Z,10.21
2023-04-30T06:54:34.384Z,10.22
2023-04-30T06:59:41.128Z,10.23
2023-04-30T07:04:47.866Z,10.21
2023-04-30T07:09:56.418Z,10.22
2023-04-30T07:15:04.274Z,10.19
2023-04-30T07:20:16.486Z,10.31
2023-04-30T07:25:24.806Z,10.20
2023-04-30T07:30:31.308Z,10.20
2023-04-30T07:35:38.156Z,10.16
2023-04-30T07:40:46.616Z,10.20
2023-04-30T07:45:54.674Z,10.18
2023-04-30T07:51:01.225Z,10.25
2023-04-30T07:56:09.874Z,10.26
2023-04-30T08:01:17.217Z,10.29
2023-04-30T08:06:23.946Z,10.30
2023-04-30T08:11:31.966Z,10.30
2023-04-30T08:16:38.580Z,10.35
2023-04-30T08:21:45.571Z,10.35
2023-04-30T08:26:54.850Z,10.42
2023-04-30T08:32:06.217Z,10.51
2023-04-30T08:37:12.772Z,10.57
2023-04-30T08:42:23.806Z,10.62
2023-04-30T08:47:30.777Z,10.59
2023-04-30T08:52:39.094Z,10.65
2023-04-30T08:57:47.764Z,10.77
2023-04-30T09:02:54.820Z,10.86
2023-04-30T09:08:04.090Z,10.92
2023-04-30T09:13:14.355Z,10.94
2023-04-30T09:18:22.192Z,10.99
2023-04-30T09:23:29.400Z,11.12
2023-04-30T09:28:37.415Z,11.12
2023-04-30T09:33:48.949Z,11.16
2023-04-30T09:38:55.847Z,11.24
2023-04-30T09:44:04.586Z,11.40
2023-04-30T09:49:15.257Z,11.53
2023-04-30T09:54:24.660Z,11.54
2023-04-30T09:59:35.670Z,11.76
2023-04-30T10:04:46.075Z,11.81
2023-04-30T10:09:58.856Z,11.86
2023-04-30T10:15:16.658Z,11.89
2023-04-30T10:20:27.627Z,11.84
2023-04-30T10:25:35.753Z,11.98
2023-04-30T10:30:44.864Z,12.20
2023-04-30T10:35:56.530Z,12.24
2023-04-30T10:41:08.238Z,12.28
2023-04-30T10:46:25.288Z,12.22
2023-04-30T10:51:52.083Z,12.30
2023-04-30T10:57:14.583Z,12.37
2023-04-30T11:02:23.888Z,12.37
2023-04-30T11:07:31.749Z,12.46
2023-04-30T11:12:42.621Z,12.56
2023-04-30T11:17:52.085Z,12.64
2023-04-30T11:23:19.627Z,12.76
2023-04-30T11:28:36.406Z,12.83
2023-04-30T11:33:44.786Z,12.94
2023-04-30T11:38:53.723Z,13.10
2023-04-30T11:44:00.259Z,13.15
2023-04-30T11:49:09.999Z,13.33
2023-04-30T11:54:18.965Z,13.38
2023-04-30T11:59:25.854Z,13.58
2023-04-30T12:04:34.618Z,13.63
2023-04-30T12:09:55.654Z,13.90
2023-04-30T12:15:14.955Z,13.86
2023-04-30T12:20:24.341Z,13.82
2023-04-30T12:25:32.507Z,14.01
2023-04-30T12:30:39.286Z,14.16
2023-04-30T12:35:48.087Z,14.12
2023-04-30T12:40:54.351Z,14.30
2023-04-30T12:46:01.544Z,14.35
2023-04-30T12:51:10.608Z,14.36
2023-04-30T12:56:19.007Z,14.32
2023-04-30T13:01:26.218Z,14.29
2023-04-30T13:06:35.735Z,14.42
2023-04-30T13:11:43.325Z,14.32
2023-04-30T13:16:49.896Z,14.25
2023-04-30T13:22:00.998Z,14.32
2023-04-30T13:27:07.727Z,14.31
2023-04-30T13:32:14.380Z,14.13
2023-04-30T13:37:22.763Z,14.28
2023-04-30T13:42:29.548Z,14.26
2023-04-30T13:47:38.517Z,14.26
2023-04-30T13:52:46.131Z,14.21
2023-04-30T13:57:52.846Z,14.16
2023-04-30T14:02:59.725Z,14.10
2023-04-30T14:08:08.658Z,14.21
2023-04-30T14:13:15.565Z,14.07
2023-04-30T14:18:23.135Z,14.09
2023-04-30T14:23:31.556Z,14.21
2023-04-30T14:28:38.148Z,14.16
2023-04-30T14:33:44.701Z,14.08
2023-04-30T14:38:52.755Z,14.07
2023-04-30T14:43:59.699Z,13.99
2023-04-30T14:49:06.771Z,13.90
2023-04-30T14:54:15.527Z,13.95
2023-04-30T14:59:22.129Z,13.94
2023-04-30T15:04:28.883Z,14.02
2023-04-30T15:09:37.173Z,13.99
2023-04-30T15:14:44.451Z,13.99
2023-04-30T15:19:52.343Z,14.00
2023-04-30T15:25:00.757Z,14.03
2023-04-30T15:30:09.854Z,14.02
2023-04-30T15:35:16.661Z,13.95
2023-04-30T15:40:25.014Z,13.88
2023-04-30T15:45:32.661Z,13.83
2023-04-30T15:50:39.360Z,13.77
2023-04-30T15:55:48.220Z,13.71
2023-04-30T16:00:55.082Z,13.68
2023-04-30T16:06:03.212Z,13.57
2023-04-30T16:11:11.446Z,13.39
2023-04-30T16:16:18.368Z,13.26
2023-04-30T16:21:25.590Z,13.23
2023-04-30T16:26:35.176Z,13.15
2023-04-30T16:31:42.514Z,13.11
2023-04-30T16:36:49.565Z,13.05
2023-04-30T16:41:57.872Z,12.96
2023-04-30T16:47:05.119Z,12.81
2023-04-30T16:52:12.992Z,12.74
2023-04-30T16:57:21.461Z,12.66
2023-04-30T17:02:28.465Z,12.58
2023-04-30T17:07:35.831Z,12.51
2023-04-30T17:12:44.450Z,12.48
2023-04-30T17:17:52.463Z,12.39
2023-04-30T17:22:59.545Z,12.30
2023-04-30T17:28:08.435Z,12.18
2023-04-30T17:33:18.971Z,12.12
2023-04-30T17:38:25.653Z,11.98
2023-04-30T17:43:35.653Z,11.94
2023-04-30T17:48:42.948Z,11.77
2023-04-30T17:53:50.998Z,11.62
2023-04-30T17:59:00.976Z,11.36
2023-04-30T18:04:11.254Z,11.08
2023-04-30T18:09:19.192Z,10.86
2023-04-30T18:14:28.985Z,10.64
2023-04-30T18:19:39.138Z,10.50
2023-04-30T18:24:47.615Z,10.33
2023-04-30T18:29:59.437Z,10.12
2023-04-30T18:35:07.216Z,9.90
2023-04-30T18:40:16.013Z,9.73
2023-04-30T18:45:28.111Z,9.63
2023-04-30T18:50:35.893Z,9.45
2023-04-30T18:55:44.011Z,9.26
2023-04-30T19:00:53.248Z,8.23
2023-04-30T19:06:04.869Z,8.40
2023-04-30T19:11:15.684Z,8.51
2023-04-30T19:16:29.773Z,8.36
2023-04-30T19:21:39.174Z,8.33
2023-04-30T19:26:47.726Z,8.32
2023-04-30T19:31:58.664Z,8.25
2023-04-30T19:37:07.642Z,8.07
2023-04-30T19:42:18.373Z,7.91
2023-04-30T19:47:29.728Z,7.81
2023-04-30T19:52:38.903Z,7.66
2023-04-30T19:57:49.300Z,7.58
2023-04-30T20:03:05.008Z,7.15
2023-04-30T20:08:16.203Z,7.18
2023-04-30T20:13:28.178Z,7.18
2023-04-30T20:18:47.624Z,7.08
2023-04-30T20:23:55.989Z,6.99
2023-04-30T20:29:05.429Z,6.81
2023-04-30T20:34:15.015Z,6.66
2023-04-30T20:39:25.094Z,6.19
2023-04-30T20:44:32.573Z,6.22
2023-04-30T20:49:41.618Z,6.27
2023-04-30T20:54:50.427Z,6.26
2023-04-30T20:59:58.117Z,6.18
2023-04-30T21:05:07.719Z,6.09
2023-04-30T21:10:15.518Z,5.81
2023-04-30T21:15:22.881Z,5.53
2023-04-30T21:20:32.535Z,5.39
2023-04-30T21:25:40.421Z,5.29
2023-04-30T21:30:47.648Z,5.26
2023-04-30T21:35:57.657Z,5.10
2023-04-30T21:41:04.702Z,5.33
2023-04-30T21:46:11.645Z,5.70
2023-04-30T21:51:20.047Z,5.94
2023-04-30T21:56:26.800Z,6.17
2023-04-30T22:01:33.979Z,6.28
2023-04-30T22:06:42.698Z,6.27
2023-04-30T22:11:49.912Z,6.26
2023-04-30T22:16:57.257Z,6.24
2023-04-30T22:22:05.963Z,6.18
2023-04-30T22:27:13.059Z,6.18
2023-04-30T22:32:21.867Z,6.13
2023-04-30T22:37:31.750Z,6.06
2023-04-30T22:42:38.561Z,6.03
2023-04-30T22:47:46.193Z,6.05
2023-04-30T22:52:56.756Z,5.86
2023-04-30T22:58:06.550Z,5.76
2023-04-30T23:03:13.580Z,5.53
2023-04-30T23:08:21.930Z,5.60
2023-04-30T23:13:29.026Z,5.68
2023-04-30T23:18:35.663Z,5.57
2023-04-30T23:23:44.524Z,5.14
2023-04-30T23:28:51.628Z,5.08
2023-04-30T23:33:58.434Z,5.05
2023-04-30T23:39:06.704Z,5.07
2023-04-30T23:44:13.813Z,5.09
2023-04-30T23:49:24.763Z,4.80
2023-04-30T23:54:33.249Z,4.73
2023-04-30T23:59:40.153Z,4.62
